sensor_id;sensor_type;location;lat;lon;timestamp;temperature;humidity
9939;DHT22;5008;50.656;7.188;2023-02-14T04:25:58;3.60;99.90
9939;DHT22;5008;50.656;7.188;2023-02-14T04:28:24;3.60;99.90
9939;DHT22;5008;50.656;7.188;2023-02-14T04:30:51;3.60;99.90
9939;DHT22;5008;50.656;7.188;2023-02-14T04:33:25;3.60;99.90
9939;DHT22;5008;50.656;7.188;2023-02-14T04:35:51;3.60;99.90
9939;DHT22;5008;50.656;7.188;2023-02-14T04:38:18;3.60;99.90
9939;DHT22;5008;50.656;7.188;2023-02-14T04:40:47;3.50;99.90
9939;DHT22;5008;50.656;7.188;2023-02-14T04:43:15;3.50;99.90
9939;DHT22;5008;50.656;7.188;2023-02-14T04:45:42;3.50;99.90
9939;DHT22;5008;50.656;7.188;2023-02-14T04:48:09;3.50;99.90
9939;DHT22;5008;50.656;7.188;2023-02-14T04:50:36;3.50;99.90
9939;DHT22;5008;50.656;7.188;2023-02-14T04:53:02;3.40;99.90
9939;DHT22;5008;50.656;7.188;2023-02-14T04:55:29;3.40;99.90
9939;DHT22;5008;50.656;7.188;2023-02-14T04:57:56;3.50;99.90
9939;DHT22;5008;50.656;7.188;2023-02-14T05:00:24;3.50;99.90
9939;DHT22;5008;50.656;7.188;2023-02-14T05:02:51;3.50;99.90
9939;DHT22;5008;50.656;7.188;2023-02-14T05:05:18;3.40;99.90
9939;DHT22;5008;50.656;7.188;2023-02-14T05:07:45;3.40;99.90
9939;DHT22;5008;50.656;7.188;2023-02-14T05:10:12;3.40;99.90
9939;DHT22;5008;50.656;7.188;2023-02-14T05:12:39;3.40;99.90
9939;DHT22;5008;50.656;7.188;2023-02-14T05:15:06;3.50;99.90
9939;DHT22;5008;50.656;7.188;2023-02-14T05:17:35;3.60;99.90
9939;DHT22;5008;50.656;7.188;2023-02-14T05:20:02;3.80;99.90
9939;DHT22;5008;50.656;7.188;2023-02-14T05:22:30;4.00;99.90
9939;DHT22;5008;50.656;7.188;2023-02-14T05:24:57;3.90;99.90
9939;DHT22;5008;50.656;7.188;2023-02-14T05:27:23;3.70;99.90
9939;DHT22;5008;50.656;7.188;2023-02-14T05:29:50;3.60;99.90
9939;DHT22;5008;50.656;7.188;2023-02-14T05:32:17;3.60;99.90
9939;DHT22;5008;50.656;7.188;2023-02-14T05:34:45;3.50;99.90
9939;DHT22;5008;50.656;7.188;2023-02-14T05:37:34;3.50;99.90
9939;DHT22;5008;50.656;7.188;2023-02-14T05:40:00;3.40;99.90
9939;DHT22;5008;50.656;7.188;2023-02-14T05:42:27;3.40;99.90
9939;DHT22;5008;50.656;7.188;2023-02-14T05:44:54;3.40;99.90
9939;DHT22;5008;50.656;7.188;2023-02-14T05:47:27;3.40;99.90
9939;DHT22;5008;50.656;7.188;2023-02-14T05:49:55;3.40;99.90
9939;DHT22;5008;50.656;7.188;2023-02-14T05:52:22;3.40;99.90
9939;DHT22;5008;50.656;7.188;2023-02-14T05:54:55;3.40;99.90
9939;DHT22;5008;50.656;7.188;2023-02-14T05:57:22;3.30;99.90
9939;DHT22;5008;50.656;7.188;2023-02-14T05:59:49;3.30;99.90
9939;DHT22;5008;50.656;7.188;2023-02-14T06:02:15;3.30;99.90
9939;DHT22;5008;50.656;7.188;2023-02-14T06:04:42;3.20;99.90
9939;DHT22;5008;50.656;7.188;2023-02-14T06:07:24;3.20;99.90
9939;DHT22;5008;50.656;7.188;2023-02-14T06:09:51;3.20;99.90
9939;DHT22;5008;50.656;7.188;2023-02-14T06:12:17;3.20;99.90
9939;DHT22;5008;50.656;7.188;2023-02-14T06:14:44;3.20;99.90
9939;DHT22;5008;50.656;7.188;2023-02-14T06:17:13;3.20;99.90
9939;DHT22;5008;50.656;7.188;2023-02-14T06:19:40;3.20;99.90
9939;DHT22;5008;50.656;7.188;2023-02-14T06:22:08;3.30;99.90
9939;DHT22;5008;50.656;7.188;2023-02-14T06:24:37;3.30;99.90
9939;DHT22;5008;50.656;7.188;2023-02-14T06:27:08;3.40;99.90
9939;DHT22;5008;50.656;7.188;2023-02-14T06:29:34;3.70;99.90
9939;DHT22;5008;50.656;7.188;2023-02-14T06:32:01;3.80;99.90
9939;DHT22;5008;50.656;7.188;2023-02-14T06:34:31;4.10;99.90
9939;DHT22;5008;50.656;7.188;2023-02-14T06:36:58;4.10;99.90
9939;DHT22;5008;50.656;7.188;2023-02-14T06:39:25;4.10;99.90
9939;DHT22;5008;50.656;7.188;2023-02-14T06:41:53;4.10;99.90
9939;DHT22;5008;50.656;7.188;2023-02-14T06:44:20;4.10;99.90
9939;DHT22;5008;50.656;7.188;2023-02-14T06:46:47;4.00;99.90
9939;DHT22;5008;50.656;7.188;2023-02-14T06:49:13;4.00;99.90
9939;DHT22;5008;50.656;7.188;2023-02-14T06:51:40;4.10;99.90
9939;DHT22;5008;50.656;7.188;2023-02-14T06:54:07;4.20;99.90
9939;DHT22;5008;50.656;7.188;2023-02-14T06:56:34;3.90;99.90
9939;DHT22;5008;50.656;7.188;2023-02-14T06:59:02;3.80;99.90
9939;DHT22;5008;50.656;7.188;2023-02-14T07:01:29;3.70;99.90
9939;DHT22;5008;50.656;7.188;2023-02-14T07:03:55;3.60;99.90
9939;DHT22;5008;50.656;7.188;2023-02-14T07:06:22;3.60;99.90
9939;DHT22;5008;50.656;7.188;2023-02-14T07:08:49;3.60;99.90
9939;DHT22;5008;50.656;7.188;2023-02-14T07:11:16;3.60;99.90
9939;DHT22;5008;50.656;7.188;2023-02-14T07:13:43;3.60;99.90
9939;DHT22;5008;50.656;7.188;2023-02-14T07:16:11;3.60;99.90
9939;DHT22;5008;50.656;7.188;2023-02-14T07:18:37;3.60;99.90
9939;DHT22;5008;50.656;7.188;2023-02-14T07:21:04;3.60;99.90
9939;DHT22;5008;50.656;7.188;2023-02-14T07:23:31;3.70;99.90
9939;DHT22;5008;50.656;7.188;2023-02-14T07:25:58;3.70;99.90
9939;DHT22;5008;50.656;7.188;2023-02-14T07:28:25;3.70;99.90
9939;DHT22;5008;50.656;7.188;2023-02-14T07:30:52;3.60;99.90
9939;DHT22;5008;50.656;7.188;2023-02-14T07:33:20;3.70;99.90
9939;DHT22;5008;50.656;7.188;2023-02-14T07:35:47;3.70;99.90
9939;DHT22;5008;50.656;7.188;2023-02-14T07:38:13;3.70;99.90
9939;DHT22;5008;50.656;7.188;2023-02-14T07:40:40;3.70;99.90
9939;DHT22;5008;50.656;7.188;2023-02-14T07:43:08;3.80;99.90
9939;DHT22;5008;50.656;7.188;2023-02-14T07:45:35;3.90;99.90
9939;DHT22;5008;50.656;7.188;2023-02-14T07:48:02;3.90;99.90
9939;DHT22;5008;50.656;7.188;2023-02-14T07:50:30;4.00;99.90
9939;DHT22;5008;50.656;7.188;2023-02-14T07:52:57;4.00;99.90
9939;DHT22;5008;50.656;7.188;2023-02-14T07:55:24;4.10;99.90
9939;DHT22;5008;50.656;7.188;2023-02-14T07:57:51;4.30;99.90
9939;DHT22;5008;50.656;7.188;2023-02-14T08:00:18;4.50;99.90
9939;DHT22;5008;50.656;7.188;2023-02-14T08:02:45;4.50;99.90
9939;DHT22;5008;50.656;7.188;2023-02-14T08:05:13;4.60;99.90
9939;DHT22;5008;50.656;7.188;2023-02-14T08:07:41;4.70;99.90
9939;DHT22;5008;50.656;7.188;2023-02-14T08:10:09;4.80;99.90
9939;DHT22;5008;50.656;7.188;2023-02-14T08:12:35;4.80;99.90
9939;DHT22;5008;50.656;7.188;2023-02-14T08:15:20;4.90;99.90
9939;DHT22;5008;50.656;7.188;2023-02-14T08:18:04;4.90;99.90
9939;DHT22;5008;50.656;7.188;2023-02-14T08:20:31;4.90;99.90
9939;DHT22;5008;50.656;7.188;2023-02-14T08:22:59;4.90;99.90
9939;DHT22;5008;50.656;7.188;2023-02-14T08:25:26;4.90;99.90
9939;DHT22;5008;50.656;7.188;2023-02-14T08:27:53;5.00;99.90
9939;DHT22;5008;50.656;7.188;2023-02-14T08:30:20;5.10;99.90
9939;DHT22;5008;50.656;7.188;2023-02-14T08:32:47;5.10;99.90
9939;DHT22;5008;50.656;7.188;2023-02-14T08:35:13;5.10;99.90
9939;DHT22;5008;50.656;7.188;2023-02-14T08:37:40;5.20;99.90
9939;DHT22;5008;50.656;7.188;2023-02-14T08:40:09;5.30;99.90
9939;DHT22;5008;50.656;7.188;2023-02-14T08:42:36;5.50;99.90
9939;DHT22;5008;50.656;7.188;2023-02-14T08:45:03;5.60;99.90
9939;DHT22;5008;50.656;7.188;2023-02-14T08:47:30;5.60;99.90
9939;DHT22;5008;50.656;7.188;2023-02-14T08:50:00;5.70;99.90
9939;DHT22;5008;50.656;7.188;2023-02-14T08:52:27;5.80;99.90
9939;DHT22;5008;50.656;7.188;2023-02-14T08:54:55;5.90;99.90
9939;DHT22;5008;50.656;7.188;2023-02-14T08:57:23;5.80;99.90
9939;DHT22;5008;50.656;7.188;2023-02-14T08:59:53;5.80;99.90
9939;DHT22;5008;50.656;7.188;2023-02-14T09:02:20;5.90;99.90
9939;DHT22;5008;50.656;7.188;2023-02-14T09:04:47;6.00;99.90
9939;DHT22;5008;50.656;7.188;2023-02-14T09:07:13;6.10;99.90
9939;DHT22;5008;50.656;7.188;2023-02-14T09:09:40;6.20;99.90
9939;DHT22;5008;50.656;7.188;2023-02-14T09:12:08;6.30;99.90
9939;DHT22;5008;50.656;7.188;2023-02-14T09:14:38;6.40;99.90
9939;DHT22;5008;50.656;7.188;2023-02-14T09:17:06;6.40;99.90
9939;DHT22;5008;50.656;7.188;2023-02-14T09:19:34;6.50;99.90
9939;DHT22;5008;50.656;7.188;2023-02-14T09:22:02;6.60;99.90
9939;DHT22;5008;50.656;7.188;2023-02-14T09:24:29;6.60;99.90
9939;DHT22;5008;50.656;7.188;2023-02-14T09:26:56;6.80;99.90
9939;DHT22;5008;50.656;7.188;2023-02-14T09:29:23;6.80;99.90
9939;DHT22;5008;50.656;7.188;2023-02-14T09:31:53;6.80;99.90
9939;DHT22;5008;50.656;7.188;2023-02-14T09:34:19;6.90;99.90
9939;DHT22;5008;50.656;7.188;2023-02-14T09:36:46;6.90;99.90
9939;DHT22;5008;50.656;7.188;2023-02-14T09:39:13;6.90;99.90
9939;DHT22;5008;50.656;7.188;2023-02-14T09:41:56;6.90;99.90
9939;DHT22;5008;50.656;7.188;2023-02-14T09:44:30;6.80;99.90
9939;DHT22;5008;50.656;7.188;2023-02-14T09:47:04;6.90;99.90
9939;DHT22;5008;50.656;7.188;2023-02-14T09:49:34;6.90;99.90
9939;DHT22;5008;50.656;7.188;2023-02-14T09:52:03;6.90;99.90
9939;DHT22;5008;50.656;7.188;2023-02-14T09:54:33;7.00;99.90
9939;DHT22;5008;50.656;7.188;2023-02-14T09:57:03;7.10;99.90
9939;DHT22;5008;50.656;7.188;2023-02-14T09:59:36;7.10;99.90
9939;DHT22;5008;50.656;7.188;2023-02-14T10:02:21;7.10;99.90
9939;DHT22;5008;50.656;7.188;2023-02-14T10:04:59;7.20;99.90
9939;DHT22;5008;50.656;7.188;2023-02-14T10:07:35;7.30;99.90
9939;DHT22;5008;50.656;7.188;2023-02-14T10:10:10;7.40;99.90
9939;DHT22;5008;50.656;7.188;2023-02-14T10:12:44;7.40;99.90
9939;DHT22;5008;50.656;7.188;2023-02-14T10:15:14;7.40;99.90
9939;DHT22;5008;50.656;7.188;2023-02-14T10:17:47;7.50;99.90
9939;DHT22;5008;50.656;7.188;2023-02-14T10:20:23;7.70;99.90
9939;DHT22;5008;50.656;7.188;2023-02-14T10:22:56;7.90;99.90
9939;DHT22;5008;50.656;7.188;2023-02-14T10:25:28;7.90;99.90
9939;DHT22;5008;50.656;7.188;2023-02-14T10:27:57;8.00;99.90
9939;DHT22;5008;50.656;7.188;2023-02-14T10:30:24;7.90;99.90
9939;DHT22;5008;50.656;7.188;2023-02-14T10:32:57;8.00;99.90
9939;DHT22;5008;50.656;7.188;2023-02-14T10:35:32;8.10;99.90
9939;DHT22;5008;50.656;7.188;2023-02-14T10:38:13;8.30;99.90
9939;DHT22;5008;50.656;7.188;2023-02-14T10:40:58;8.30;99.90
9939;DHT22;5008;50.656;7.188;2023-02-14T10:43:34;8.60;99.90
9939;DHT22;5008;50.656;7.188;2023-02-14T10:46:09;8.50;99.90
9939;DHT22;5008;50.656;7.188;2023-02-14T10:48:45;8.60;99.90
9939;DHT22;5008;50.656;7.188;2023-02-14T10:51:18;8.70;99.90
9939;DHT22;5008;50.656;7.188;2023-02-14T10:54:04;8.60;99.90
9939;DHT22;5008;50.656;7.188;2023-02-14T10:56:37;8.70;99.90
9939;DHT22;5008;50.656;7.188;2023-02-14T10:59:13;8.80;99.90
9939;DHT22;5008;50.656;7.188;2023-02-14T11:01:42;8.70;99.90
9939;DHT22;5008;50.656;7.188;2023-02-14T11:04:10;8.80;99.90
9939;DHT22;5008;50.656;7.188;2023-02-14T11:06:39;8.70;99.90
9939;DHT22;5008;50.656;7.188;2023-02-14T11:09:05;8.60;99.90
9939;DHT22;5008;50.656;7.188;2023-02-14T11:11:36;8.70;99.90
9939;DHT22;5008;50.656;7.188;2023-02-14T11:14:19;8.80;99.90
9939;DHT22;5008;50.656;7.188;2023-02-14T11:16:46;9.00;99.90
9939;DHT22;5008;50.656;7.188;2023-02-14T11:19:22;9.10;99.90
9939;DHT22;5008;50.656;7.188;2023-02-14T11:21:50;9.40;99.90
9939;DHT22;5008;50.656;7.188;2023-02-14T11:24:23;9.60;99.90
9939;DHT22;5008;50.656;7.188;2023-02-14T11:26:51;9.70;99.90
9939;DHT22;5008;50.656;7.188;2023-02-14T11:29:26;9.70;99.90
9939;DHT22;5008;50.656;7.188;2023-02-14T11:31:53;9.60;99.90
9939;DHT22;5008;50.656;7.188;2023-02-14T11:34:37;9.70;99.90
9939;DHT22;5008;50.656;7.188;2023-02-14T11:37:18;9.70;99.90
9939;DHT22;5008;50.656;7.188;2023-02-14T11:39:51;9.90;99.90
9939;DHT22;5008;50.656;7.188;2023-02-14T11:42:32;9.80;99.90
9939;DHT22;5008;50.656;7.188;2023-02-14T11:45:00;9.70;99.90
9939;DHT22;5008;50.656;7.188;2023-02-14T11:47:35;9.80;99.90
9939;DHT22;5008;50.656;7.188;2023-02-14T11:50:20;9.90;99.90
9939;DHT22;5008;50.656;7.188;2023-02-14T11:52:52;9.90;99.90
9939;DHT22;5008;50.656;7.188;2023-02-14T11:55:26;9.70;99.90
9939;DHT22;5008;50.656;7.188;2023-02-14T11:57:54;10.10;99.90
9939;DHT22;5008;50.656;7.188;2023-02-14T12:00:22;10.50;99.90
9939;DHT22;5008;50.656;7.188;2023-02-14T12:02:52;10.60;99.90
9939;DHT22;5008;50.656;7.188;2023-02-14T12:05:22;10.60;99.90
9939;DHT22;5008;50.656;7.188;2023-02-14T12:07:53;10.40;99.90
9939;DHT22;5008;50.656;7.188;2023-02-14T12:10:26;10.30;99.90
9939;DHT22;5008;50.656;7.188;2023-02-14T12:12:57;10.30;99.90
9939;DHT22;5008;50.656;7.188;2023-02-14T12:15:29;10.30;99.90
9939;DHT22;5008;50.656;7.188;2023-02-14T12:18:18;10.60;99.90
9939;DHT22;5008;50.656;7.188;2023-02-14T12:20:54;10.80;99.90
9939;DHT22;5008;50.656;7.188;2023-02-14T12:23:25;10.90;99.90
9939;DHT22;5008;50.656;7.188;2023-02-14T12:25:57;11.20;99.90
9939;DHT22;5008;50.656;7.188;2023-02-14T12:28:30;12.00;99.90
9939;DHT22;5008;50.656;7.188;2023-02-14T12:31:07;12.50;99.90
9939;DHT22;5008;50.656;7.188;2023-02-14T12:33:35;12.70;99.90
9939;DHT22;5008;50.656;7.188;2023-02-14T12:36:09;13.60;99.90
9939;DHT22;5008;50.656;7.188;2023-02-14T12:38:46;14.50;99.90
9939;DHT22;5008;50.656;7.188;2023-02-14T12:41:26;15.10;99.90
9939;DHT22;5008;50.656;7.188;2023-02-14T12:43:54;15.30;99.90
9939;DHT22;5008;50.656;7.188;2023-02-14T12:46:44;15.80;99.90
9939;DHT22;5008;50.656;7.188;2023-02-14T12:49:34;17.00;99.90
9939;DHT22;5008;50.656;7.188;2023-02-14T12:52:15;17.80;99.90
9939;DHT22;5008;50.656;7.188;2023-02-14T12:55:01;18.40;98.30
9939;DHT22;5008;50.656;7.188;2023-02-14T12:57:39;18.40;96.40
9939;DHT22;5008;50.656;7.188;2023-02-14T13:00:21;17.40;97.30
9939;DHT22;5008;50.656;7.188;2023-02-14T13:03:05;16.20;98.10
9939;DHT22;5008;50.656;7.188;2023-02-14T13:05:47;15.20;98.80
9939;DHT22;5008;50.656;7.188;2023-02-14T13:08:25;14.70;99.90
9939;DHT22;5008;50.656;7.188;2023-02-14T13:10:57;15.10;99.90
9939;DHT22;5008;50.656;7.188;2023-02-14T13:13:44;16.20;99.30
9939;DHT22;5008;50.656;7.188;2023-02-14T13:16:22;18.10;98.20
9939;DHT22;5008;50.656;7.188;2023-02-14T13:18:57;18.70;96.40
9939;DHT22;5008;50.656;7.188;2023-02-14T13:21:28;20.10;94.70
9939;DHT22;5008;50.656;7.188;2023-02-14T13:24:06;20.50;93.20
9939;DHT22;5008;50.656;7.188;2023-02-14T13:26:39;20.50;92.50
9939;DHT22;5008;50.656;7.188;2023-02-14T13:29:11;20.40;92.10
9939;DHT22;5008;50.656;7.188;2023-02-14T13:31:39;20.60;91.50
9939;DHT22;5008;50.656;7.188;2023-02-14T13:34:12;19.80;91.00
9939;DHT22;5008;50.656;7.188;2023-02-14T13:36:45;18.40;92.30
9939;DHT22;5008;50.656;7.188;2023-02-14T13:39:24;18.10;93.70
9939;DHT22;5008;50.656;7.188;2023-02-14T13:41:51;19.30;92.50
9939;DHT22;5008;50.656;7.188;2023-02-14T13:44:42;19.80;91.20
9939;DHT22;5008;50.656;7.188;2023-02-14T13:47:15;18.90;91.80
9939;DHT22;5008;50.656;7.188;2023-02-14T13:49:46;18.90;92.10
9939;DHT22;5008;50.656;7.188;2023-02-14T13:52:40;19.00;91.30
9939;DHT22;5008;50.656;7.188;2023-02-14T13:55:15;18.80;92.10
9939;DHT22;5008;50.656;7.188;2023-02-14T13:57:43;18.70;92.70
9939;DHT22;5008;50.656;7.188;2023-02-14T14:00:37;20.50;91.50
9939;DHT22;5008;50.656;7.188;2023-02-14T14:03:04;22.30;88.60
9939;DHT22;5008;50.656;7.188;2023-02-14T14:05:57;22.90;85.80
9939;DHT22;5008;50.656;7.188;2023-02-14T14:08:42;22.80;83.40
9939;DHT22;5008;50.656;7.188;2023-02-14T14:13:57;22.10;84.20
9939;DHT22;5008;50.656;7.188;2023-02-14T14:16:29;23.30;81.60
9939;DHT22;5008;50.656;7.188;2023-02-14T14:18:59;24.00;80.70
9939;DHT22;5008;50.656;7.188;2023-02-14T14:21:29;24.70;77.30
9939;DHT22;5008;50.656;7.188;2023-02-14T14:24:17;24.90;75.60
9939;DHT22;5008;50.656;7.188;2023-02-14T14:26:48;24.80;74.20
9939;DHT22;5008;50.656;7.188;2023-02-14T14:29:18;25.00;73.20
9939;DHT22;5008;50.656;7.188;2023-02-14T14:31:47;24.80;72.10
9939;DHT22;5008;50.656;7.188;2023-02-14T14:34:21;24.40;71.30
9939;DHT22;5008;50.656;7.188;2023-02-14T14:36:49;22.90;72.20
9939;DHT22;5008;50.656;7.188;2023-02-14T14:39:27;21.50;73.50
9939;DHT22;5008;50.656;7.188;2023-02-14T14:42:04;19.50;77.70
9939;DHT22;5008;50.656;7.188;2023-02-14T14:44:31;17.90;80.50
9939;DHT22;5008;50.656;7.188;2023-02-14T14:46:59;16.80;83.90
9939;DHT22;5008;50.656;7.188;2023-02-14T14:49:27;16.00;86.50
9939;DHT22;5008;50.656;7.188;2023-02-14T14:51:54;15.20;88.60
9939;DHT22;5008;50.656;7.188;2023-02-14T14:54:22;14.70;90.40
9939;DHT22;5008;50.656;7.188;2023-02-14T14:56:53;14.30;91.40
9939;DHT22;5008;50.656;7.188;2023-02-14T14:59:29;14.10;92.40
9939;DHT22;5008;50.656;7.188;2023-02-14T15:01:56;13.70;93.00
9939;DHT22;5008;50.656;7.188;2023-02-14T15:04:25;13.40;94.00
9939;DHT22;5008;50.656;7.188;2023-02-14T15:06:54;13.30;94.60
9939;DHT22;5008;50.656;7.188;2023-02-14T15:09:23;13.10;95.00
9939;DHT22;5008;50.656;7.188;2023-02-14T15:11:56;12.80;95.50
9939;DHT22;5008;50.656;7.188;2023-02-14T15:14:45;12.60;96.00
9939;DHT22;5008;50.656;7.188;2023-02-14T15:17:17;12.50;96.80
9939;DHT22;5008;50.656;7.188;2023-02-14T15:19:47;12.30;97.60
9939;DHT22;5008;50.656;7.188;2023-02-14T15:22:19;12.20;98.10
9939;DHT22;5008;50.656;7.188;2023-02-14T15:24:47;12.10;98.40
9939;DHT22;5008;50.656;7.188;2023-02-14T15:27:17;11.90;98.90
9939;DHT22;5008;50.656;7.188;2023-02-14T15:29:54;11.80;99.30
9939;DHT22;5008;50.656;7.188;2023-02-14T15:32:23;11.60;99.60
9939;DHT22;5008;50.656;7.188;2023-02-14T15:34:51;11.50;99.90
9939;DHT22;5008;50.656;7.188;2023-02-14T15:37:19;11.40;99.90
9939;DHT22;5008;50.656;7.188;2023-02-14T15:39:49;11.40;99.90
9939;DHT22;5008;50.656;7.188;2023-02-14T15:42:22;11.30;99.90
9939;DHT22;5008;50.656;7.188;2023-02-14T15:45:18;11.10;99.90
9939;DHT22;5008;50.656;7.188;2023-02-14T15:47:49;11.00;99.90
9939;DHT22;5008;50.656;7.188;2023-02-14T15:50:18;11.00;99.90
9939;DHT22;5008;50.656;7.188;2023-02-14T15:52:49;11.00;99.90
9939;DHT22;5008;50.656;7.188;2023-02-14T15:55:18;10.90;99.90
9939;DHT22;5008;50.656;7.188;2023-02-14T15:57:52;10.80;99.90
9939;DHT22;5008;50.656;7.188;2023-02-14T16:00:23;10.70;99.90
9939;DHT22;5008;50.656;7.188;2023-02-14T16:02:53;10.50;99.90
9939;DHT22;5008;50.656;7.188;2023-02-14T16:05:23;10.50;99.90
9939;DHT22;5008;50.656;7.188;2023-02-14T16:07:59;10.40;99.90
9939;DHT22;5008;50.656;7.188;2023-02-14T16:10:29;10.30;99.90
9939;DHT22;5008;50.656;7.188;2023-02-14T16:12:59;10.20;99.90
9939;DHT22;5008;50.656;7.188;2023-02-14T16:15:29;10.10;99.90
9939;DHT22;5008;50.656;7.188;2023-02-14T16:17:57;10.00;99.90
9939;DHT22;5008;50.656;7.188;2023-02-14T16:20:37;10.00;99.90
9939;DHT22;5008;50.656;7.188;2023-02-14T16:23:19;9.90;99.90
9939;DHT22;5008;50.656;7.188;2023-02-14T16:25:46;9.80;99.90
9939;DHT22;5008;50.656;7.188;2023-02-14T16:28:14;9.80;99.90
9939;DHT22;5008;50.656;7.188;2023-02-14T16:30:43;9.70;99.90
9939;DHT22;5008;50.656;7.188;2023-02-14T16:33:14;9.60;99.90
9939;DHT22;5008;50.656;7.188;2023-02-14T16:35:43;9.60;99.90
9939;DHT22;5008;50.656;7.188;2023-02-14T16:38:11;9.50;99.90
9939;DHT22;5008;50.656;7.188;2023-02-14T16:40:41;9.40;99.90
9939;DHT22;5008;50.656;7.188;2023-02-14T16:43:11;9.30;99.90
9939;DHT22;5008;50.656;7.188;2023-02-14T16:45:38;9.20;99.90
9939;DHT22;5008;50.656;7.188;2023-02-14T16:48:06;9.20;99.90
9939;DHT22;5008;50.656;7.188;2023-02-14T16:50:35;9.10;99.90
9939;DHT22;5008;50.656;7.188;2023-02-14T16:53:04;9.00;99.90
9939;DHT22;5008;50.656;7.188;2023-02-14T16:55:31;9.00;99.90
9939;DHT22;5008;50.656;7.188;2023-02-14T16:57:59;8.90;99.90
9939;DHT22;5008;50.656;7.188;2023-02-14T17:00:27;8.80;99.90
9939;DHT22;5008;50.656;7.188;2023-02-14T17:02:55;8.70;99.90
9939;DHT22;5008;50.656;7.188;2023-02-14T17:05:31;8.60;99.90
9939;DHT22;5008;50.656;7.188;2023-02-14T17:07:58;8.70;99.90
9939;DHT22;5008;50.656;7.188;2023-02-14T17:10:26;8.60;99.90
9939;DHT22;5008;50.656;7.188;2023-02-14T17:12:55;8.50;99.90
9939;DHT22;5008;50.656;7.188;2023-02-14T17:15:24;8.50;99.90
9939;DHT22;5008;50.656;7.188;2023-02-14T17:17:55;8.40;99.90
9939;DHT22;5008;50.656;7.188;2023-02-14T17:20:24;8.40;99.90
9939;DHT22;5008;50.656;7.188;2023-02-14T17:22:53;8.30;99.90
9939;DHT22;5008;50.656;7.188;2023-02-14T17:25:20;8.40;99.90
9939;DHT22;5008;50.656;7.188;2023-02-14T17:27:46;8.40;99.90
9939;DHT22;5008;50.656;7.188;2023-02-14T17:30:17;8.30;99.90
9939;DHT22;5008;50.656;7.188;2023-02-14T17:32:44;8.20;99.90
9939;DHT22;5008;50.656;7.188;2023-02-14T17:35:10;8.10;99.90
9939;DHT22;5008;50.656;7.188;2023-02-14T17:37:39;8.00;99.90
9939;DHT22;5008;50.656;7.188;2023-02-14T17:40:08;7.90;99.90
9939;DHT22;5008;50.656;7.188;2023-02-14T17:42:35;7.80;99.90
9939;DHT22;5008;50.656;7.188;2023-02-14T17:45:03;7.70;99.90
9939;DHT22;5008;50.656;7.188;2023-02-14T17:47:31;7.60;99.90
9939;DHT22;5008;50.656;7.188;2023-02-14T17:49:58;7.60;99.90
9939;DHT22;5008;50.656;7.188;2023-02-14T17:52:25;7.50;99.90
9939;DHT22;5008;50.656;7.188;2023-02-14T17:54:54;7.60;99.90
9939;DHT22;5008;50.656;7.188;2023-02-14T17:57:22;7.50;99.90
9939;DHT22;5008;50.656;7.188;2023-02-14T17:59:49;7.50;99.90
9939;DHT22;5008;50.656;7.188;2023-02-14T18:02:16;7.40;99.90
9939;DHT22;5008;50.656;7.188;2023-02-14T18:04:43;7.40;99.90
9939;DHT22;5008;50.656;7.188;2023-02-14T18:07:09;7.40;99.90
9939;DHT22;5008;50.656;7.188;2023-02-14T18:09:36;7.30;99.90
9939;DHT22;5008;50.656;7.188;2023-02-14T18:12:03;7.30;99.90
9939;DHT22;5008;50.656;7.188;2023-02-14T18:14:33;7.20;99.90
9939;DHT22;5008;50.656;7.188;2023-02-14T18:16:59;7.20;99.90
9939;DHT22;5008;50.656;7.188;2023-02-14T18:19:27;7.20;99.90
9939;DHT22;5008;50.656;7.188;2023-02-14T18:21:54;7.10;99.90
9939;DHT22;5008;50.656;7.188;2023-02-14T18:24:20;7.00;99.90
9939;DHT22;5008;50.656;7.188;2023-02-14T18:26:47;7.00;99.90
9939;DHT22;5008;50.656;7.188;2023-02-14T18:29:14;6.90;99.90
9939;DHT22;5008;50.656;7.188;2023-02-14T18:31:43;7.00;99.90
9939;DHT22;5008;50.656;7.188;2023-02-14T18:34:10;6.90;99.90
9939;DHT22;5008;50.656;7.188;2023-02-14T18:36:38;6.80;99.90
9939;DHT22;5008;50.656;7.188;2023-02-14T18:39:06;6.80;99.90
9939;DHT22;5008;50.656;7.188;2023-02-14T18:41:33;6.70;99.90
9939;DHT22;5008;50.656;7.188;2023-02-14T18:44:01;6.60;99.90
9939;DHT22;5008;50.656;7.188;2023-02-14T18:46:29;6.60;99.90
9939;DHT22;5008;50.656;7.188;2023-02-14T18:48:58;6.50;99.90
9939;DHT22;5008;50.656;7.188;2023-02-14T18:51:27;6.50;99.90
9939;DHT22;5008;50.656;7.188;2023-02-14T18:53:55;6.50;99.90
9939;DHT22;5008;50.656;7.188;2023-02-14T18:56:24;6.40;99.90
9939;DHT22;5008;50.656;7.188;2023-02-14T18:58:55;6.40;99.90
9939;DHT22;5008;50.656;7.188;2023-02-14T19:01:25;6.30;99.90
9939;DHT22;5008;50.656;7.188;2023-02-14T19:03:54;6.20;99.90
9939;DHT22;5008;50.656;7.188;2023-02-14T19:06:22;6.20;99.90
9939;DHT22;5008;50.656;7.188;2023-02-14T19:08:49;6.10;99.90
9939;DHT22;5008;50.656;7.188;2023-02-14T19:11:17;6.10;99.90
9939;DHT22;5008;50.656;7.188;2023-02-14T19:13:45;6.10;99.90
9939;DHT22;5008;50.656;7.188;2023-02-14T19:16:15;6.00;99.90
9939;DHT22;5008;50.656;7.188;2023-02-14T19:18:42;6.00;99.90
9939;DHT22;5008;50.656;7.188;2023-02-14T19:21:10;6.00;99.90
9939;DHT22;5008;50.656;7.188;2023-02-14T19:23:38;5.90;99.90
9939;DHT22;5008;50.656;7.188;2023-02-14T19:26:09;5.90;99.90
9939;DHT22;5008;50.656;7.188;2023-02-14T19:28:36;5.90;99.90
9939;DHT22;5008;50.656;7.188;2023-02-14T19:31:03;5.80;99.90
9939;DHT22;5008;50.656;7.188;2023-02-14T19:33:30;5.90;99.90
9939;DHT22;5008;50.656;7.188;2023-02-14T19:36:00;5.90;99.90
9939;DHT22;5008;50.656;7.188;2023-02-14T19:38:27;5.90;99.90
9939;DHT22;5008;50.656;7.188;2023-02-14T19:40:55;5.80;99.90
9939;DHT22;5008;50.656;7.188;2023-02-14T19:43:22;5.80;99.90
9939;DHT22;5008;50.656;7.188;2023-02-14T19:45:50;5.80;99.90
9939;DHT22;5008;50.656;7.188;2023-02-14T19:48:17;5.70;99.90
9939;DHT22;5008;50.656;7.188;2023-02-14T19:50:43;5.60;99.90
9939;DHT22;5008;50.656;7.188;2023-02-14T19:53:10;5.60;99.90
9939;DHT22;5008;50.656;7.188;2023-02-14T19:55:37;5.50;99.90
9939;DHT22;5008;50.656;7.188;2023-02-14T19:58:05;5.40;99.90
9939;DHT22;5008;50.656;7.188;2023-02-14T20:00:32;5.40;99.90
9939;DHT22;5008;50.656;7.188;2023-02-14T20:03:01;5.30;99.90
9939;DHT22;5008;50.656;7.188;2023-02-14T20:05:29;5.30;99.90
9939;DHT22;5008;50.656;7.188;2023-02-14T20:07:56;5.30;99.90
9939;DHT22;5008;50.656;7.188;2023-02-14T20:10:23;5.20;99.90
9939;DHT22;5008;50.656;7.188;2023-02-14T20:12:50;5.10;99.90
9939;DHT22;5008;50.656;7.188;2023-02-14T20:15:18;5.10;99.90
9939;DHT22;5008;50.656;7.188;2023-02-14T20:17:45;5.20;99.90
9939;DHT22;5008;50.656;7.188;2023-02-14T20:20:12;5.40;99.90
9939;DHT22;5008;50.656;7.188;2023-02-14T20:22:40;5.50;99.90
9939;DHT22;5008;50.656;7.188;2023-02-14T20:25:07;5.50;99.90
9939;DHT22;5008;50.656;7.188;2023-02-14T20:27:34;5.60;99.90
9939;DHT22;5008;50.656;7.188;2023-02-14T20:30:01;5.60;99.90
9939;DHT22;5008;50.656;7.188;2023-02-14T20:32:29;5.60;99.90
9939;DHT22;5008;50.656;7.188;2023-02-14T20:34:57;5.50;99.90
9939;DHT22;5008;50.656;7.188;2023-02-14T20:37:24;5.50;99.90
9939;DHT22;5008;50.656;7.188;2023-02-14T20:39:51;5.40;99.90
9939;DHT22;5008;50.656;7.188;2023-02-14T20:42:18;5.30;99.90
9939;DHT22;5008;50.656;7.188;2023-02-14T20:44:45;5.30;99.90
9939;DHT22;5008;50.656;7.188;2023-02-14T20:47:11;5.20;99.90
9939;DHT22;5008;50.656;7.188;2023-02-14T20:49:39;5.10;99.90
9939;DHT22;5008;50.656;7.188;2023-02-14T20:52:09;5.00;99.90
9939;DHT22;5008;50.656;7.188;2023-02-14T20:54:37;5.10;99.90
9939;DHT22;5008;50.656;7.188;2023-02-14T20:57:04;5.10;99.90
9939;DHT22;5008;50.656;7.188;2023-02-14T20:59:31;5.10;99.90
9939;DHT22;5008;50.656;7.188;2023-02-14T21:01:58;5.00;99.90